createdAt,value
2019-04-22T00:01:16.478Z,26.30
2019-04-22T00:03:52.143Z,25.15
2019-04-22T00:06:40.627Z,29.60
2019-04-22T00:09:11.488Z,25.40
2019-04-22T00:11:45.770Z,27.95
2019-04-22T00:14:05.598Z,22.65
2019-04-22T00:16:53.256Z,25.17
2019-04-22T00:21:46.205Z,26.05
2019-04-22T00:24:17.109Z,23.12
2019-04-22T00:26:51.851Z,31.00
2019-04-22T00:29:46.303Z,26.10
2019-04-22T00:32:05.242Z,31.75
2019-04-22T00:34:42.736Z,25.30
2019-04-22T00:37:17.224Z,28.95
2019-04-22T00:39:46.351Z,26.35
2019-04-22T00:42:21.167Z,24.57
2019-04-22T00:44:57.854Z,25.68
2019-04-22T00:47:27.914Z,23.80
2019-04-22T00:50:12.720Z,27.37
2019-04-22T00:52:28.183Z,25.17
2019-04-22T00:54:59.428Z,23.65
2019-04-22T00:57:27.813Z,24.23
2019-04-22T01:00:01.488Z,23.57
2019-04-22T01:02:34.751Z,24.55
2019-04-22T01:05:13.582Z,22.20
2019-04-22T01:07:38.896Z,22.67
2019-04-22T01:10:12.762Z,27.70
2019-04-22T01:12:39.902Z,25.02
2019-04-22T01:15:20.851Z,23.27
2019-04-22T01:17:45.357Z,24.32
2019-04-22T01:20:29.416Z,25.27
2019-04-22T01:22:50.490Z,26.40
2019-04-22T01:25:16.236Z,29.75
2019-04-22T01:27:40.234Z,27.45
2019-04-22T01:30:13.971Z,21.48
2019-04-22T01:32:36.107Z,22.40
2019-04-22T01:35:12.986Z,19.32
2019-04-22T01:37:48.280Z,24.00
2019-04-22T01:40:35.062Z,22.32
2019-04-22T01:43:01.847Z,22.98
2019-04-22T01:45:33.333Z,21.17
2019-04-22T01:48:02.841Z,23.92
2019-04-22T01:50:37.044Z,20.20
2019-04-22T01:58:09.022Z,24.82
2019-04-22T02:00:46.928Z,23.45
2019-04-22T02:03:17.311Z,19.85
2019-04-22T02:05:43.602Z,18.67
2019-04-22T02:08:28.406Z,18.67
2019-04-22T02:13:21.415Z,19.17
2019-04-22T02:18:35.802Z,18.15
2019-04-22T02:20:55.352Z,14.63
2019-04-22T02:28:47.682Z,17.12
2019-04-22T02:31:25.598Z,18.50
2019-04-22T02:39:00.062Z,18.50
2019-04-22T02:49:01.501Z,15.30
2019-04-22T02:54:27.485Z,15.38
2019-04-22T02:59:16.282Z,15.38
2019-04-22T03:01:36.856Z,19.60
2019-04-22T03:11:45.061Z,15.93
2019-04-22T03:21:51.906Z,14.03
2019-04-22T03:26:59.129Z,12.23
2019-04-22T03:30:36.569Z,13.18
2019-04-22T03:37:53.389Z,10.78
2019-04-22T03:40:14.383Z,10.30
2019-04-22T03:42:51.932Z,10.95
2019-04-22T03:52:50.400Z,15.18
2019-04-22T03:55:33.087Z,9.08
2019-04-22T03:57:50.000Z,11.55
2019-04-22T04:00:35.976Z,10.20
2019-04-22T04:02:59.500Z,9.93
2019-04-22T04:10:35.420Z,12.28
2019-04-22T04:13:03.443Z,11.30
2019-04-22T04:20:36.473Z,14.98
2019-04-22T04:23:24.312Z,9.73
2019-04-22T04:25:42.965Z,11.35
2019-04-22T04:33:17.940Z,11.05
2019-04-22T04:35:47.831Z,8.93
2019-04-22T04:38:11.513Z,13.93
2019-04-22T04:41:06.904Z,10.60
2019-04-22T04:43:18.704Z,10.00
2019-04-22T04:51:12.170Z,10.82
2019-04-22T04:56:01.896Z,10.88
2019-04-22T04:58:46.942Z,10.70
2019-04-22T05:03:46.045Z,9.65
2019-04-22T05:06:07.455Z,12.13
2019-04-22T05:08:54.379Z,9.23
2019-04-22T05:11:10.899Z,11.88
2019-04-22T05:18:44.782Z,13.50
2019-04-22T05:21:14.777Z,9.98
2019-04-22T05:23:47.694Z,9.03
2019-04-22T05:26:26.226Z,12.40
2019-04-22T05:28:48.080Z,11.28
2019-04-22T05:31:21.252Z,10.13
2019-04-22T05:33:50.964Z,9.30
2019-04-22T05:36:25.974Z,9.58
2019-04-22T05:38:58.315Z,8.85
2019-04-22T05:41:22.043Z,8.95
2019-04-22T05:43:59.929Z,11.18
2019-04-22T05:46:26.267Z,9.75
2019-04-22T05:49:14.942Z,14.18
2019-04-22T05:51:32.544Z,9.60
2019-04-22T05:54:02.578Z,13.25
2019-04-22T05:56:37.123Z,12.00
2019-04-22T05:59:03.551Z,13.08
2019-04-22T06:01:43.501Z,10.68
2019-04-22T06:04:11.619Z,9.05
2019-04-22T06:06:36.742Z,8.68
2019-04-22T06:09:10.431Z,8.95
2019-04-22T06:11:33.877Z,9.38
2019-04-22T06:14:18.977Z,10.80
2019-04-22T06:16:54.013Z,7.15
2019-04-22T06:19:21.682Z,8.10
2019-04-22T06:21:50.083Z,12.88
2019-04-22T06:24:29.091Z,8.60
2019-04-22T06:27:06.472Z,10.90
2019-04-22T06:29:26.686Z,13.93
2019-04-22T06:32:17.893Z,9.38
2019-04-22T06:34:28.724Z,8.05
2019-04-22T06:37:11.925Z,7.10
2019-04-22T06:39:34.383Z,12.10
2019-04-22T06:42:08.060Z,10.90
2019-04-22T06:44:37.011Z,8.08
2019-04-22T06:47:40.114Z,7.42
2019-04-22T06:49:41.487Z,7.17
2019-04-22T06:52:16.903Z,8.65
2019-04-22T06:54:59.621Z,11.22
2019-04-22T06:57:13.801Z,7.15
2019-04-22T06:59:44.014Z,9.18
2019-04-22T07:02:23.887Z,6.62
2019-04-22T07:04:49.465Z,6.90
2019-04-22T07:07:21.528Z,6.85
2019-04-22T07:10:18.231Z,8.03
2019-04-22T07:12:36.459Z,7.87
2019-04-22T07:15:12.748Z,6.80
2019-04-22T07:17:42.498Z,5.85
2019-04-22T07:20:10.483Z,7.10
2019-04-22T07:22:39.982Z,7.80
2019-04-22T07:25:10.190Z,6.17
2019-04-22T07:27:47.340Z,9.70
2019-04-22T07:33:05.060Z,5.83
2019-04-22T07:35:22.591Z,6.67
2019-04-22T07:37:55.592Z,6.22
2019-04-22T07:40:32.496Z,7.33
2019-04-22T07:42:57.149Z,9.13
2019-04-22T07:45:44.371Z,6.58
2019-04-22T07:48:02.677Z,8.98
2019-04-22T07:50:42.766Z,6.47
2019-04-22T07:52:57.012Z,7.40
2019-04-22T07:55:36.845Z,8.48
2019-04-22T07:58:10.666Z,5.47
2019-04-22T08:00:39.023Z,5.35
2019-04-22T08:03:11.857Z,7.28
2019-04-22T08:05:52.245Z,5.33
2019-04-22T08:08:20.765Z,9.33
2019-04-22T08:13:16.966Z,8.35
2019-04-22T08:15:55.335Z,7.75
2019-04-22T08:20:54.109Z,6.40
2019-04-22T08:23:31.600Z,8.80
2019-04-22T08:26:16.761Z,6.53
2019-04-22T08:31:07.634Z,10.40
2019-04-22T08:33:33.347Z,8.88
2019-04-22T08:38:48.394Z,5.87
2019-04-22T08:41:32.112Z,8.25
2019-04-22T08:43:57.394Z,5.83
2019-04-22T08:48:57.764Z,6.15
2019-04-22T08:51:25.444Z,7.67
2019-04-22T08:53:59.808Z,4.97
2019-04-22T08:56:32.104Z,5.72
2019-04-22T09:01:33.937Z,7.28
2019-04-22T09:04:06.958Z,4.92
2019-04-22T09:06:49.439Z,8.50
2019-04-22T09:09:11.451Z,9.95
2019-04-22T09:11:41.877Z,5.20
2019-04-22T09:14:16.578Z,5.03
2019-04-22T09:16:42.747Z,5.20
2019-04-22T09:19:12.222Z,7.78
2019-04-22T09:21:53.229Z,10.90
2019-04-22T09:24:19.657Z,6.80
2019-04-22T09:26:49.980Z,4.05
2019-04-22T09:31:53.634Z,4.33
2019-04-22T09:34:22.586Z,4.87
2019-04-22T09:36:58.670Z,7.08
2019-04-22T09:39:31.308Z,5.30
2019-04-22T09:42:02.996Z,5.47
2019-04-22T09:44:36.653Z,5.78
2019-04-22T09:47:09.597Z,5.17
2019-04-22T09:49:44.627Z,5.75
2019-04-22T09:52:12.462Z,7.65
2019-04-22T09:54:49.564Z,8.48
2019-04-22T09:57:09.016Z,5.62
2019-04-22T09:59:43.765Z,9.25
2019-04-22T10:04:46.651Z,4.08
2019-04-22T10:07:23.806Z,7.03
2019-04-22T10:12:26.466Z,5.20
2019-04-22T10:17:25.798Z,5.55
2019-04-22T10:19:55.075Z,7.20
2019-04-22T10:22:32.105Z,5.65
2019-04-22T10:27:34.681Z,8.50
2019-04-22T10:32:33.976Z,5.17
2019-04-22T10:35:04.964Z,6.08
2019-04-22T10:37:32.341Z,6.00
2019-04-22T10:40:06.056Z,5.53
2019-04-22T10:42:41.025Z,7.97
2019-04-22T10:45:12.430Z,7.28
2019-04-22T10:47:42.458Z,4.95
2019-04-22T10:50:14.274Z,8.05
2019-04-22T10:52:45.486Z,5.45
2019-04-22T10:55:17.140Z,13.58
2019-04-22T10:57:48.508Z,5.75
2019-04-22T11:00:19.768Z,4.53
2019-04-22T11:02:49.856Z,10.03
2019-04-22T11:05:20.003Z,5.22
2019-04-22T11:07:56.822Z,9.20
2019-04-22T11:10:40.358Z,6.55
2019-04-22T11:12:54.596Z,7.90
2019-04-22T11:15:24.788Z,6.30
2019-04-22T11:17:55.603Z,5.72
2019-04-22T11:20:25.934Z,6.20
2019-04-22T11:22:56.426Z,8.48
2019-04-22T11:25:27.671Z,5.65
2019-04-22T11:27:57.972Z,5.47
2019-04-22T11:30:30.203Z,6.78
2019-04-22T11:33:00.485Z,4.78
2019-04-22T11:35:31.945Z,8.93
2019-04-22T11:38:02.026Z,6.00
2019-04-22T11:40:38.233Z,10.25
2019-04-22T11:43:04.008Z,6.03
2019-04-22T11:45:35.255Z,7.40
2019-04-22T11:48:05.731Z,7.08
2019-04-22T11:50:35.862Z,3.98
2019-04-22T11:53:07.058Z,6.03
2019-04-22T11:55:37.395Z,8.70
2019-04-22T11:58:08.708Z,7.80
2019-04-22T12:00:40.936Z,5.53
2019-04-22T12:03:10.949Z,5.25
2019-04-22T12:05:41.738Z,4.50
2019-04-22T12:08:13.099Z,8.55
2019-04-22T12:10:50.664Z,5.58
2019-04-22T12:13:15.815Z,5.53
2019-04-22T12:15:46.951Z,9.13
2019-04-22T12:18:17.317Z,4.47
2019-04-22T12:20:47.461Z,6.55
2019-04-22T12:23:18.871Z,7.03
2019-04-22T12:25:57.159Z,8.68
2019-04-22T12:28:21.206Z,4.22
2019-04-22T12:30:51.326Z,3.47
2019-04-22T12:33:21.343Z,3.85
2019-04-22T12:35:52.805Z,5.67
2019-04-22T12:38:24.072Z,6.03
2019-04-22T12:40:59.075Z,6.00
2019-04-22T12:43:26.453Z,4.15
2019-04-22T12:45:58.259Z,6.72
2019-04-22T12:48:28.153Z,7.05
2019-04-22T12:50:58.515Z,5.75
2019-04-22T12:53:29.923Z,5.37
2019-04-22T12:56:01.257Z,4.92
2019-04-22T12:58:31.690Z,5.62
2019-04-22T13:01:03.163Z,4.05
2019-04-22T13:03:34.125Z,5.53
2019-04-22T13:06:05.702Z,3.25
2019-04-22T13:08:35.893Z,5.00
2019-04-22T13:11:11.769Z,4.40
2019-04-22T13:13:38.614Z,5.22
2019-04-22T13:16:09.038Z,4.87
2019-04-22T13:18:47.314Z,3.17
2019-04-22T13:21:10.834Z,2.95
2019-04-22T13:23:41.284Z,4.87
2019-04-22T13:26:12.651Z,3.12
2019-04-22T13:28:43.196Z,2.08
2019-04-22T13:31:13.831Z,2.50
2019-04-22T13:33:43.957Z,6.65
2019-04-22T13:36:13.760Z,4.72
2019-04-22T13:38:44.843Z,2.67
2019-04-22T13:41:28.262Z,4.58
2019-04-22T13:43:47.256Z,5.70
2019-04-22T13:46:19.997Z,5.17
2019-04-22T13:49:14.739Z,3.92
2019-04-22T13:54:06.514Z,2.62
2019-04-22T13:56:45.093Z,4.62
2019-04-22T13:59:07.286Z,5.22
2019-04-22T14:01:37.032Z,3.12
2019-04-22T14:04:20.482Z,3.45
2019-04-22T14:06:50.401Z,3.77
2019-04-22T14:09:20.468Z,3.05
2019-04-22T14:11:56.724Z,2.47
2019-04-22T14:14:22.234Z,5.87
2019-04-22T14:16:53.245Z,3.95
2019-04-22T14:19:23.777Z,5.00
2019-04-22T14:21:53.867Z,2.95
2019-04-22T14:24:23.865Z,2.55
2019-04-22T14:27:06.992Z,2.45
2019-04-22T14:29:26.007Z,2.37
2019-04-22T14:32:05.614Z,4.72
2019-04-22T14:34:28.533Z,4.28
2019-04-22T14:36:59.442Z,4.78
2019-04-22T14:39:30.352Z,7.42
2019-04-22T14:42:20.436Z,4.15
2019-04-22T14:47:27.868Z,4.22
2019-04-22T14:50:00.485Z,2.98
2019-04-22T14:52:46.192Z,4.95
2019-04-22T14:54:51.914Z,4.37
2019-04-22T14:57:10.926Z,5.75
2019-04-22T14:59:41.931Z,6.05
2019-04-22T15:02:13.934Z,4.42
2019-04-22T15:04:43.892Z,3.90
2019-04-22T15:07:14.859Z,1.57
2019-04-22T15:09:46.190Z,2.08
2019-04-22T15:12:25.955Z,1.80
2019-04-22T15:14:47.982Z,4.92
2019-04-22T15:17:42.928Z,1.85
2019-04-22T15:20:31.893Z,1.20
2019-04-22T15:23:02.391Z,1.75
2019-04-22T15:25:32.613Z,1.60
2019-04-22T15:28:03.671Z,5.03
2019-04-22T15:30:33.555Z,2.47
2019-04-22T15:33:03.440Z,5.50
2019-04-22T15:35:33.660Z,3.05
2019-04-22T15:38:04.759Z,3.42
2019-04-22T15:40:34.692Z,2.12
2019-04-22T15:43:04.805Z,2.70
2019-04-22T15:45:35.037Z,1.72
2019-04-22T15:48:06.147Z,2.98
2019-04-22T15:50:36.873Z,4.25
2019-04-22T15:53:07.685Z,1.30
2019-04-22T15:55:38.916Z,2.70
2019-04-22T15:58:10.165Z,1.62
2019-04-22T16:00:51.609Z,4.78
2019-04-22T16:03:12.528Z,4.87
2019-04-22T16:05:44.189Z,2.75
2019-04-22T16:08:14.972Z,4.12
2019-04-22T16:10:46.236Z,6.20
2019-04-22T16:13:23.029Z,6.10
2019-04-22T16:15:49.056Z,3.98
2019-04-22T16:18:20.109Z,4.97
2019-04-22T16:20:50.291Z,3.60
2019-04-22T16:23:38.387Z,6.80
2019-04-22T16:26:36.365Z,6.08
2019-04-22T16:29:07.288Z,2.30
2019-04-22T16:31:37.729Z,3.20
2019-04-22T16:34:09.327Z,4.25
2019-04-22T16:36:40.640Z,5.85
2019-04-22T16:39:13.090Z,8.13
2019-04-22T16:41:44.571Z,3.33
2019-04-22T16:44:14.545Z,6.20
2019-04-22T16:46:45.664Z,3.02
2019-04-22T16:49:15.950Z,8.80
2019-04-22T16:51:45.997Z,3.98
2019-04-22T16:54:16.034Z,7.35
2019-04-22T16:56:46.173Z,6.47
2019-04-22T16:59:16.997Z,2.65
2019-04-22T17:02:06.395Z,10.18
2019-04-22T17:05:02.028Z,6.42
2019-04-22T17:07:32.288Z,6.85
2019-04-22T17:10:02.165Z,4.00
2019-04-22T17:12:45.772Z,3.62
2019-04-22T17:15:09.849Z,9.73
2019-04-22T17:17:39.229Z,2.33
2019-04-22T17:20:11.320Z,8.55
2019-04-22T17:22:41.866Z,4.20
2019-04-22T17:25:12.153Z,4.03
2019-04-22T17:27:43.346Z,3.08
2019-04-22T17:30:14.886Z,3.65
2019-04-22T17:32:46.800Z,2.25
2019-04-22T17:35:17.753Z,3.85
2019-04-22T17:37:51.875Z,4.75
2019-04-22T17:40:40.875Z,6.62
2019-04-22T17:43:16.912Z,10.70
2019-04-22T17:45:49.253Z,4.00
2019-04-22T17:48:42.012Z,5.35
2019-04-22T17:51:22.369Z,2.98
2019-04-22T17:53:46.722Z,4.22
2019-04-22T17:56:22.031Z,3.17
2019-04-22T17:58:47.595Z,6.00
2019-04-22T18:01:22.045Z,7.62
2019-04-22T18:03:39.143Z,8.63
2019-04-22T18:06:09.335Z,2.83
2019-04-22T18:08:54.968Z,8.33
2019-04-22T18:11:33.591Z,3.00
2019-04-22T18:14:03.148Z,4.03
2019-04-22T18:16:29.469Z,4.10
2019-04-22T18:18:59.963Z,4.95
2019-04-22T18:21:27.472Z,5.17
2019-04-22T18:23:58.185Z,4.47
2019-04-22T18:26:30.687Z,1.87
2019-04-22T18:29:07.133Z,2.33
2019-04-22T18:31:31.644Z,2.83
2019-04-22T18:34:04.497Z,3.60
2019-04-22T18:36:44.160Z,7.03
2019-04-22T18:39:22.486Z,4.10
2019-04-22T18:41:48.948Z,4.22
2019-04-22T18:44:23.181Z,3.40
2019-04-22T18:46:47.771Z,2.90
2019-04-22T18:49:22.951Z,1.90
2019-04-22T18:52:08.504Z,1.60
2019-04-22T18:55:07.197Z,3.77
2019-04-22T18:58:01.137Z,3.52
2019-04-22T19:00:18.544Z,4.33
2019-04-22T19:02:55.862Z,7.25
2019-04-22T19:05:34.653Z,3.42
2019-04-22T19:08:20.989Z,5.42
2019-04-22T19:16:21.008Z,3.85
2019-04-22T19:18:29.740Z,3.85
2019-04-22T19:20:57.653Z,4.05
2019-04-22T19:23:28.593Z,3.72
2019-04-22T19:25:52.621Z,5.20
2019-04-22T19:28:34.445Z,2.33
2019-04-22T19:31:09.242Z,3.95
2019-04-22T19:33:35.480Z,2.95
2019-04-22T19:36:11.318Z,5.87
2019-04-22T19:38:30.068Z,1.95
2019-04-22T19:41:13.498Z,2.95
2019-04-22T19:43:39.291Z,4.45
2019-04-22T19:46:07.170Z,7.95
2019-04-22T19:48:45.493Z,2.45
2019-04-22T19:51:36.911Z,2.65
2019-04-22T19:53:47.120Z,4.53
2019-04-22T19:56:11.525Z,7.08
2019-04-22T19:58:49.210Z,3.35
2019-04-22T20:01:46.230Z,3.42
2019-04-22T20:04:37.720Z,3.58
2019-04-22T20:07:08.617Z,2.83
2019-04-22T20:09:43.761Z,2.00
2019-04-22T20:12:15.133Z,2.65
2019-04-22T20:14:45.022Z,3.80
2019-04-22T20:17:18.799Z,5.28
2019-04-22T20:19:56.950Z,1.40
2019-04-22T20:22:17.735Z,4.00
2019-04-22T20:24:43.165Z,2.17
2019-04-22T20:27:22.478Z,5.85
2019-04-22T20:30:02.273Z,2.58
2019-04-22T20:32:26.317Z,5.90
2019-04-22T20:35:05.978Z,4.37
2019-04-22T20:37:35.518Z,1.20
2019-04-22T20:40:05.432Z,1.40
2019-04-22T20:42:43.636Z,8.70
2019-04-22T20:45:13.238Z,6.60
2019-04-22T20:47:32.012Z,2.25
2019-04-22T20:50:17.508Z,2.55
2019-04-22T20:52:48.715Z,3.72
2019-04-22T20:55:07.684Z,7.35
2019-04-22T20:57:47.996Z,1.32
2019-04-22T21:00:15.080Z,5.00
2019-04-22T21:02:40.195Z,5.45
2019-04-22T21:05:14.340Z,3.98
2019-04-22T21:07:47.955Z,5.70
2019-04-22T21:10:19.826Z,1.52
2019-04-22T21:12:48.143Z,5.95
2019-04-22T21:15:32.661Z,6.65
2019-04-22T21:17:56.857Z,2.83
2019-04-22T21:20:34.847Z,5.83
2019-04-22T21:23:02.949Z,3.00
2019-04-22T21:25:23.960Z,2.40
2019-04-22T21:28:04.567Z,2.85
2019-04-22T21:30:32.915Z,2.27
2019-04-22T21:33:03.586Z,3.75
2019-04-22T21:35:53.912Z,1.37
2019-04-22T21:38:15.159Z,7.53
2019-04-22T21:40:40.391Z,3.58
2019-04-22T21:43:18.712Z,3.50
2019-04-22T21:45:45.433Z,3.40
2019-04-22T21:48:26.820Z,2.80
2019-04-22T21:50:56.722Z,1.27
2019-04-22T21:53:25.112Z,4.53
2019-04-22T21:56:00.323Z,4.92
2019-04-22T21:58:31.823Z,3.35
2019-04-22T22:01:44.387Z,4.50
2019-04-22T22:04:05.058Z,2.42
2019-04-22T22:06:32.928Z,3.37
2019-04-22T22:09:15.651Z,2.75
2019-04-22T22:11:41.785Z,3.52
2019-04-22T22:14:11.674Z,3.60
2019-04-22T22:16:41.579Z,1.80
2019-04-22T22:19:17.742Z,15.78
2019-04-22T22:24:22.907Z,1.27
2019-04-22T22:26:55.770Z,4.55
2019-04-22T22:29:42.158Z,3.22
2019-04-22T22:32:00.084Z,4.12
2019-04-22T22:34:31.494Z,5.17
2019-04-22T22:36:51.619Z,3.02
2019-04-22T22:39:24.798Z,3.02
2019-04-22T22:41:44.115Z,4.72
2019-04-22T22:44:24.241Z,8.48
2019-04-22T22:47:03.522Z,3.80
2019-04-22T22:49:45.204Z,2.87
2019-04-22T22:52:40.882Z,2.45
2019-04-22T22:54:39.229Z,5.12
2019-04-22T22:59:43.070Z,3.05
2019-04-22T23:02:20.807Z,5.37
2019-04-22T23:04:52.210Z,5.72
2019-04-22T23:07:22.666Z,2.30
2019-04-22T23:09:48.778Z,3.10
2019-04-22T23:12:34.573Z,5.03
2019-04-22T23:14:57.544Z,6.45
2019-04-22T23:17:11.718Z,3.87
2019-04-22T23:19:40.467Z,2.90
2019-04-22T23:22:20.553Z,6.58
2019-04-22T23:25:00.199Z,2.95
2019-04-22T23:27:52.547Z,3.22
2019-04-22T23:30:40.986Z,4.58
2019-04-22T23:33:26.456Z,4.37
2019-04-22T23:36:03.047Z,4.35
2019-04-22T23:38:38.835Z,1.95
2019-04-22T23:41:39.178Z,6.28
2019-04-22T23:44:03.750Z,4.33
2019-04-22T23:46:38.294Z,5.65
2019-04-22T23:49:11.772Z,2.85
2019-04-22T23:51:55.615Z,1.67
2019-04-22T23:54:25.682Z,3.35
2019-04-22T23:56:46.967Z,2.45
2019-04-22T23:59:38.619Z,3.00
